Time;durP1;ratioP1;P1;durP2;ratioP2;P2;SDS_P1;SDS_P2;PMS_P1;PMS_P2;Temp;Humidity;BMP_temperature;BMP_pressure;BME280_temperature;BME280_humidity;BME280_pressure;Samples;Min_cycle;Max_cycle;Signal;HPM_P1;HPM_P2
2021/07/21 00:00:51;;;;;;;22.05;13.68;;;;;;;;;;5114296;28;20024;-63
2021/07/21 00:03:17;;;;;;;25.52;14.38;;;;;;;;;;5111008;28;20028;-63
2021/07/21 00:05:44;;;;;;;24.38;12.95;;;;;;;;;;5113123;28;20479;-63
2021/07/21 00:08:10;;;;;;;24.75;12.70;;;;;;;;;;5113696;28;20028;-63
2021/07/21 00:10:36;;;;;;;24.23;13.20;;;;;;;;;;5114542;28;20031;-63
2021/07/21 00:16:29;;;;;;;24.15;13.15;;;;;;;;;;5112955;28;20051;-63
2021/07/21 00:21:08;;;;;;;28.02;13.45;;;;;;;;;;5113936;28;20049;-63
2021/07/21 00:23:35;;;;;;;24.38;13.60;;;;;;;;;;5113963;28;20019;-63
2021/07/21 00:26:01;;;;;;;25.45;15.13;;;;;;;;;;5112159;28;20024;-63
2021/07/21 00:28:28;;;;;;;22.73;13.32;;;;;;;;;;5113882;28;20106;-63
2021/07/21 00:30:54;;;;;;;22.67;13.15;;;;;;;;;;5114175;28;20024;-63
2021/07/21 00:33:20;;;;;;;23.80;12.85;;;;;;;;;;5113446;28;20016;-63
2021/07/21 00:35:47;;;;;;;21.55;12.88;;;;;;;;;;5093120;28;20020;-63
2021/07/21 00:38:13;;;;;;;22.55;13.95;;;;;;;;;;5110923;28;20027;-63
2021/07/21 00:40:39;;;;;;;23.50;12.98;;;;;;;;;;5113743;28;20015;-63
2021/07/21 00:43:06;;;;;;;26.73;13.85;;;;;;;;;;5112883;28;20127;-63
2021/07/21 00:45:32;;;;;;;26.45;15.15;;;;;;;;;;5111980;28;20491;-63
2021/07/21 00:47:58;;;;;;;26.00;15.13;;;;;;;;;;5113218;28;20054;-63
2021/07/21 00:50:24;;;;;;;28.48;15.63;;;;;;;;;;5094196;28;20039;-63
2021/07/21 00:52:51;;;;;;;32.45;15.98;;;;;;;;;;5113559;28;20487;-63
2021/07/21 00:55:17;;;;;;;30.48;15.63;;;;;;;;;;5111665;28;20031;-63
2021/07/21 00:57:44;;;;;;;30.20;15.90;;;;;;;;;;5112740;28;20015;-63
2021/07/21 01:00:11;;;;;;;32.33;16.60;;;;;;;;;;5113357;28;20028;-63
2021/07/21 01:02:37;;;;;;;28.88;15.00;;;;;;;;;;5111682;28;20072;-63
2021/07/21 01:05:14;;;;;;;29.35;15.52;;;;;;;;;;5111118;28;20028;-63
2021/07/21 01:07:41;;;;;;;31.65;15.52;;;;;;;;;;5101738;28;20019;-63
2021/07/21 01:10:09;;;;;;;32.97;17.55;;;;;;;;;;5112404;28;20023;-63
2021/07/21 01:12:39;;;;;;;35.83;18.27;;;;;;;;;;5112984;28;20542;-63
2021/07/21 01:15:05;;;;;;;34.28;16.63;;;;;;;;;;5111457;28;20044;-63
2021/07/21 01:17:42;;;;;;;31.10;16.02;;;;;;;;;;5112818;28;20119;-63
2021/07/21 01:20:27;;;;;;;38.42;19.70;;;;;;;;;;5112895;28;20031;-63
2021/07/21 01:22:58;;;;;;;36.25;18.42;;;;;;;;;;5093520;28;20023;-63
2021/07/21 01:25:27;;;;;;;37.97;19.23;;;;;;;;;;5110765;28;20028;-63
2021/07/21 01:27:54;;;;;;;35.67;16.80;;;;;;;;;;5112051;28;20020;-63
2021/07/21 01:30:22;;;;;;;35.92;16.55;;;;;;;;;;5110809;28;20031;-63
2021/07/21 01:32:54;;;;;;;30.45;15.05;;;;;;;;;;5094320;28;20035;-63
2021/07/21 01:35:24;;;;;;;32.28;16.52;;;;;;;;;;5110302;28;20035;-64
2021/07/21 01:37:56;;;;;;;33.95;18.13;;;;;;;;;;5112549;28;20054;-63
2021/07/21 01:40:24;;;;;;;37.60;19.25;;;;;;;;;;5116503;27;20027;-63
2021/07/21 01:42:52;;;;;;;41.13;20.42;;;;;;;;;;5112881;27;20026;-63
2021/07/21 01:45:18;;;;;;;40.67;20.42;;;;;;;;;;5113113;27;20072;-63
2021/07/21 01:47:46;;;;;;;36.33;19.48;;;;;;;;;;5100149;27;20585;-63
2021/07/21 01:50:12;;;;;;;38.35;18.73;;;;;;;;;;5112267;28;20111;-63
2021/07/21 01:52:40;;;;;;;33.08;18.42;;;;;;;;;;5111784;28;20078;-63
2021/07/21 01:55:07;;;;;;;36.75;18.77;;;;;;;;;;5110517;28;20499;-63
2021/07/21 01:57:33;;;;;;;45.35;19.88;;;;;;;;;;5112119;28;20078;-63
2021/07/21 02:00:00;;;;;;;41.10;18.85;;;;;;;;;;5111802;28;20027;-63
2021/07/21 02:02:27;;;;;;;34.28;17.65;;;;;;;;;;5112253;28;20028;-63
2021/07/21 02:04:54;;;;;;;36.95;18.15;;;;;;;;;;5109934;28;20019;-63
2021/07/21 02:07:21;;;;;;;39.22;19.40;;;;;;;;;;5112226;28;20027;-63
2021/07/21 02:09:47;;;;;;;40.83;18.48;;;;;;;;;;5111344;28;20019;-63
2021/07/21 02:12:14;;;;;;;44.55;20.88;;;;;;;;;;5110849;28;20027;-63
2021/07/21 02:14:43;;;;;;;41.28;20.35;;;;;;;;;;5109930;28;20119;-63
2021/07/21 02:17:09;;;;;;;39.25;20.48;;;;;;;;;;5106599;28;20031;-63
2021/07/21 02:19:36;;;;;;;43.65;21.92;;;;;;;;;;5111226;28;20072;-63
2021/07/21 02:22:02;;;;;;;54.30;26.48;;;;;;;;;;5116510;27;20410;-63
2021/07/21 02:24:29;;;;;;;46.75;20.63;;;;;;;;;;5110706;28;20092;-63
2021/07/21 02:26:55;;;;;;;46.72;21.77;;;;;;;;;;5111066;28;20020;-63
2021/07/21 02:29:23;;;;;;;44.40;20.90;;;;;;;;;;5111480;28;20020;-63
2021/07/21 02:32:01;;;;;;;49.95;23.10;;;;;;;;;;5111129;28;20045;-63
2021/07/21 02:34:27;;;;;;;42.95;20.02;;;;;;;;;;5091512;28;20031;-63
2021/07/21 02:36:53;;;;;;;43.47;19.00;;;;;;;;;;5110233;28;20041;-64
2021/07/21 02:39:21;;;;;;;40.38;21.25;;;;;;;;;;5111193;28;20028;-63
2021/07/21 02:41:48;;;;;;;41.90;21.92;;;;;;;;;;5111292;28;20051;-63
2021/07/21 02:44:14;;;;;;;41.35;21.15;;;;;;;;;;5111842;28;20152;-63
2021/07/21 02:46:40;;;;;;;42.28;19.25;;;;;;;;;;5111266;28;20554;-63
2021/07/21 02:49:06;;;;;;;40.80;20.08;;;;;;;;;;5092808;28;20035;-63
2021/07/21 02:51:32;;;;;;;39.72;20.48;;;;;;;;;;5111311;28;20059;-63
2021/07/21 02:54:02;;;;;;;38.60;19.90;;;;;;;;;;5109522;28;20030;-63
2021/07/21 02:56:31;;;;;;;41.55;20.10;;;;;;;;;;5111359;28;20032;-63
2021/07/21 02:59:03;;;;;;;46.63;21.90;;;;;;;;;;5110555;28;20032;-63
2021/07/21 03:01:29;;;;;;;;;;;;;;;;;;5112228;28;20039;-63
2021/07/21 03:03:55;;;;;;;44.05;20.60;;;;;;;;;;5109323;28;19912;-63
2021/07/21 03:06:23;;;;;;;47.10;22.27;;;;;;;;;;5110843;28;20103;-63
2021/07/21 03:08:50;;;;;;;40.80;21.75;;;;;;;;;;5111181;28;20066;-63
2021/07/21 03:11:17;;;;;;;42.55;20.83;;;;;;;;;;5110370;28;20032;-63
2021/07/21 03:13:48;;;;;;;55.92;24.55;;;;;;;;;;5114068;28;20028;-63
2021/07/21 03:16:16;;;;;;;42.10;21.47;;;;;;;;;;5084057;28;20036;-63
2021/07/21 03:18:45;;;;;;;48.20;20.85;;;;;;;;;;5111018;28;20028;-63
2021/07/21 03:21:11;;;;;;;50.60;23.25;;;;;;;;;;5111089;28;20028;-63
2021/07/21 03:23:38;;;;;;;54.25;25.65;;;;;;;;;;5110441;28;20024;-63
2021/07/21 03:26:07;;;;;;;55.08;25.90;;;;;;;;;;5090784;28;20077;-63
2021/07/21 03:28:33;;;;;;;58.40;27.73;;;;;;;;;;5114100;28;20031;-63
2021/07/21 03:31:00;;;;;;;47.30;24.13;;;;;;;;;;5114466;28;20020;-63
2021/07/21 03:33:28;;;;;;;53.28;25.55;;;;;;;;;;5114502;28;20267;-63
2021/07/21 03:35:55;;;;;;;58.20;25.67;;;;;;;;;;5112874;28;20495;-63
2021/07/21 03:38:22;;;;;;;55.22;24.63;;;;;;;;;;5115051;28;20020;-63
2021/07/21 03:40:50;;;;;;;59.03;26.70;;;;;;;;;;5114223;28;20106;-63
2021/07/21 03:43:16;;;;;;;52.10;26.90;;;;;;;;;;5114518;28;20035;-63
2021/07/21 03:45:43;;;;;;;52.45;24.05;;;;;;;;;;5094266;28;20415;-63
2021/07/21 03:48:09;;;;;;;47.10;24.42;;;;;;;;;;5116522;27;20027;-63
2021/07/21 03:50:35;;;;;;;49.70;24.92;;;;;;;;;;5105089;28;20032;-63
2021/07/21 03:53:02;;;;;;;48.60;22.35;;;;;;;;;;5114342;28;20023;-63
2021/07/21 03:55:29;;;;;;;48.38;22.65;;;;;;;;;;5089244;28;20050;-63
2021/07/21 03:57:55;;;;;;;49.40;23.42;;;;;;;;;;5109812;28;20384;-63
2021/07/21 04:00:24;;;;;;;47.42;23.25;;;;;;;;;;5114061;28;20110;-63
2021/07/21 04:02:52;;;;;;;51.13;24.08;;;;;;;;;;5103967;28;20007;-63
2021/07/21 04:05:18;;;;;;;48.42;23.63;;;;;;;;;;5112385;28;20081;-63
2021/07/21 04:07:45;;;;;;;50.70;24.63;;;;;;;;;;5114417;28;20085;-63
2021/07/21 04:10:12;;;;;;;49.92;24.02;;;;;;;;;;5113880;28;20020;-63
2021/07/21 04:12:43;;;;;;;52.65;23.63;;;;;;;;;;5113989;28;20070;-63
2021/07/21 04:15:10;;;;;;;50.15;24.52;;;;;;;;;;5093487;28;20043;-63
2021/07/21 04:17:36;;;;;;;56.08;24.50;;;;;;;;;;5114383;28;20038;-63
2021/07/21 04:20:03;;;;;;;49.50;24.77;;;;;;;;;;5113450;28;20046;-63
2021/07/21 04:22:29;;;;;;;48.17;22.90;;;;;;;;;;5114300;28;20127;-63
2021/07/21 04:24:58;;;;;;;48.78;23.58;;;;;;;;;;5092551;28;20604;-63
2021/07/21 04:27:24;;;;;;;50.85;23.58;;;;;;;;;;5113988;28;20032;-63
2021/07/21 04:29:51;;;;;;;55.53;26.77;;;;;;;;;;5095337;28;20032;-63
2021/07/21 04:32:18;;;;;;;53.38;24.58;;;;;;;;;;5113702;28;20035;-63
2021/07/21 04:34:44;;;;;;;45.72;23.95;;;;;;;;;;5112056;28;20036;-63
2021/07/21 04:37:10;;;;;;;55.83;25.80;;;;;;;;;;5112922;28;20106;-63
2021/07/21 04:39:36;;;;;;;53.42;24.90;;;;;;;;;;5112418;28;20035;-63
2021/07/21 04:42:03;;;;;;;46.50;22.45;;;;;;;;;;5113083;28;20076;-63
2021/07/21 04:44:30;;;;;;;43.78;21.83;;;;;;;;;;5111393;28;20096;-63
2021/07/21 04:46:58;;;;;;;51.17;24.52;;;;;;;;;;5110933;28;20031;-62
2021/07/21 04:49:25;;;;;;;46.08;23.17;;;;;;;;;;5109414;28;20037;-62
2021/07/21 04:51:52;;;;;;;52.67;25.13;;;;;;;;;;5111533;28;20694;-63
2021/07/21 04:54:19;;;;;;;47.90;24.30;;;;;;;;;;5090721;28;20027;-63
2021/07/21 04:56:45;;;;;;;53.78;26.00;;;;;;;;;;5112640;27;20096;-63
2021/07/21 04:59:11;;;;;;;46.83;24.13;;;;;;;;;;5110512;28;20027;-63
2021/07/21 05:01:38;;;;;;;44.58;23.20;;;;;;;;;;5108261;28;20024;-63
2021/07/21 05:04:04;;;;;;;50.95;23.50;;;;;;;;;;5109521;28;20059;-62
2021/07/21 05:06:34;;;;;;;52.53;24.42;;;;;;;;;;5109709;28;20015;-63
2021/07/21 05:09:00;;;;;;;45.72;22.92;;;;;;;;;;5109481;28;20027;-62
2021/07/21 05:11:26;;;;;;;46.63;23.05;;;;;;;;;;5111316;28;20031;-63
2021/07/21 05:13:52;;;;;;;47.45;25.27;;;;;;;;;;5110557;28;20047;-63
2021/07/21 05:16:18;;;;;;;49.45;23.88;;;;;;;;;;5110722;28;20047;-63
2021/07/21 05:18:46;;;;;;;49.95;23.48;;;;;;;;;;5105105;28;20031;-63
2021/07/21 05:21:12;;;;;;;54.20;24.70;;;;;;;;;;5110993;28;20038;-62
2021/07/21 05:23:39;;;;;;;52.97;24.27;;;;;;;;;;5111559;28;20023;-63
2021/07/21 05:26:07;;;;;;;49.83;23.92;;;;;;;;;;5109936;28;20027;-63
2021/07/21 05:28:34;;;;;;;47.63;23.77;;;;;;;;;;5110638;28;20015;-63
2021/07/21 05:31:01;;;;;;;43.00;24.05;;;;;;;;;;5109399;28;20054;-63
2021/07/21 05:33:27;;;;;;;44.88;23.15;;;;;;;;;;5110889;28;20038;-63
2021/07/21 05:35:53;;;;;;;44.00;22.17;;;;;;;;;;5101263;27;20016;-63
2021/07/21 05:38:19;;;;;;;49.50;24.70;;;;;;;;;;5103789;28;20024;-63
2021/07/21 05:40:45;;;;;;;50.50;24.02;;;;;;;;;;5101305;28;20024;-63
2021/07/21 05:43:12;;;;;;;47.83;24.52;;;;;;;;;;5100433;28;20411;-63
2021/07/21 05:45:38;;;;;;;41.30;20.85;;;;;;;;;;5098846;28;20137;-62
2021/07/21 05:48:04;;;;;;;44.55;21.65;;;;;;;;;;5098621;28;20028;-63
2021/07/21 05:50:30;;;;;;;48.08;21.33;;;;;;;;;;5103163;28;20027;-63
2021/07/21 05:52:57;;;;;;;44.58;21.73;;;;;;;;;;5111128;27;20024;-62
2021/07/21 05:55:23;;;;;;;41.03;21.40;;;;;;;;;;5109363;28;20020;-62
2021/07/21 05:57:50;;;;;;;44.85;21.42;;;;;;;;;;5109407;28;20030;-62
2021/07/21 06:00:16;;;;;;;41.53;21.13;;;;;;;;;;5109892;28;20034;-63
2021/07/21 06:02:42;;;;;;;43.08;21.42;;;;;;;;;;5109022;28;20019;-63
2021/07/21 06:05:09;;;;;;;38.28;23.00;;;;;;;;;;5103696;28;20023;-62
2021/07/21 06:07:35;;;;;;;41.72;22.70;;;;;;;;;;5108285;28;20031;-63
2021/07/21 06:10:01;;;;;;;39.20;22.20;;;;;;;;;;5113953;27;20032;-62
2021/07/21 06:12:27;;;;;;;43.60;21.50;;;;;;;;;;5111041;28;20051;-62
2021/07/21 06:14:53;;;;;;;38.63;21.10;;;;;;;;;;5108131;28;20043;-62
2021/07/21 06:17:19;;;;;;;40.22;20.58;;;;;;;;;;5108734;28;20433;-63
2021/07/21 06:19:45;;;;;;;40.08;21.20;;;;;;;;;;5108757;28;20084;-62
2021/07/21 06:22:18;;;;;;;35.28;20.17;;;;;;;;;;5109554;28;20035;-62
2021/07/21 06:24:44;;;;;;;41.42;20.38;;;;;;;;;;5107711;28;20050;-62
2021/07/21 06:27:10;;;;;;;35.75;20.50;;;;;;;;;;5112542;27;20027;-63
2021/07/21 06:29:36;;;;;;;43.65;20.27;;;;;;;;;;5109545;28;20068;-62
2021/07/21 06:32:02;;;;;;;42.65;19.75;;;;;;;;;;5109577;28;20032;-62
2021/07/21 06:34:28;;;;;;;34.08;18.52;;;;;;;;;;5108988;28;20032;-62
2021/07/21 06:36:54;;;;;;;37.95;19.63;;;;;;;;;;5110224;28;20028;-62
2021/07/21 06:39:20;;;;;;;34.25;19.60;;;;;;;;;;5109588;28;20403;-62
2021/07/21 06:41:46;;;;;;;33.08;18.77;;;;;;;;;;5109978;28;20430;-63
2021/07/21 06:44:12;;;;;;;38.88;21.13;;;;;;;;;;5110746;27;20028;-62
2021/07/21 06:46:38;;;;;;;35.33;19.95;;;;;;;;;;5107869;28;20011;-62
2021/07/21 06:49:04;;;;;;;37.97;19.88;;;;;;;;;;5109983;28;20038;-62
2021/07/21 06:51:30;;;;;;;36.40;21.27;;;;;;;;;;5109939;28;20030;-63
2021/07/21 06:53:56;;;;;;;46.03;23.38;;;;;;;;;;5109216;28;20031;-62
2021/07/21 06:56:23;;;;;;;48.15;24.38;;;;;;;;;;5110085;28;20023;-63
2021/07/21 06:58:50;;;;;;;45.70;23.33;;;;;;;;;;5110127;28;20471;-63
2021/07/21 07:01:18;;;;;;;44.03;27.42;;;;;;;;;;5109410;28;20016;-62
2021/07/21 07:03:44;;;;;;;38.47;23.60;;;;;;;;;;5115807;28;20066;-63
2021/07/21 07:06:10;;;;;;;51.28;23.83;;;;;;;;;;5097638;28;20028;-63
2021/07/21 07:08:36;;;;;;;42.58;22.85;;;;;;;;;;5116580;27;20016;-62
2021/07/21 07:11:03;;;;;;;48.15;25.25;;;;;;;;;;5114791;28;20068;-62
2021/07/21 07:13:29;;;;;;;46.63;24.40;;;;;;;;;;5113782;28;20023;-62
2021/07/21 07:15:55;;;;;;;44.67;23.83;;;;;;;;;;5109958;28;20089;-62
2021/07/21 07:18:21;;;;;;;40.58;22.60;;;;;;;;;;5111675;27;20035;-62
2021/07/21 07:20:48;;;;;;;45.30;23.25;;;;;;;;;;5110134;28;20023;-62
2021/07/21 07:23:14;;;;;;;39.38;23.00;;;;;;;;;;5111090;28;20028;-63
2021/07/21 07:25:41;;;;;;;38.65;21.48;;;;;;;;;;5100491;28;20024;-63
2021/07/21 07:28:08;;;;;;;40.63;22.70;;;;;;;;;;5106614;28;20509;-63
2021/07/21 07:30:34;;;;;;;35.65;20.65;;;;;;;;;;5101097;28;20028;-62
2021/07/21 07:33:01;;;;;;;38.67;20.08;;;;;;;;;;5098949;27;20027;-62
2021/07/21 07:35:27;;;;;;;31.92;19.70;;;;;;;;;;5083299;28;20089;-62
2021/07/21 07:37:53;;;;;;;36.47;20.35;;;;;;;;;;5111487;27;20032;-62
2021/07/21 07:40:19;;;;;;;32.63;18.55;;;;;;;;;;5110558;27;20102;-63
2021/07/21 07:42:45;;;;;;;34.85;18.90;;;;;;;;;;5093072;28;20956;-63
2021/07/21 07:45:11;;;;;;;34.42;19.05;;;;;;;;;;5100260;27;20109;-62
2021/07/21 07:47:37;;;;;;;36.58;21.25;;;;;;;;;;5111522;27;20023;-63
2021/07/21 07:50:08;;;;;;;34.33;20.35;;;;;;;;;;5093012;27;20550;-63
2021/07/21 07:52:35;;;;;;;27.88;18.00;;;;;;;;;;5109921;27;20027;-62
2021/07/21 07:55:02;;;;;;;34.78;17.77;;;;;;;;;;5086544;28;20044;-62
2021/07/21 07:57:28;;;;;;;29.08;17.90;;;;;;;;;;5108862;28;20098;-63
2021/07/21 07:59:54;;;;;;;31.05;16.27;;;;;;;;;;5111604;28;20028;-62
2021/07/21 08:02:20;;;;;;;34.65;17.38;;;;;;;;;;5092835;28;20050;-62
2021/07/21 08:04:47;;;;;;;30.30;17.15;;;;;;;;;;5109097;27;20089;-62
2021/07/21 08:07:13;;;;;;;30.08;17.90;;;;;;;;;;5111168;27;20024;-63
2021/07/21 08:09:39;;;;;;;31.40;17.23;;;;;;;;;;5112592;28;20146;-63
2021/07/21 08:12:06;;;;;;;30.13;16.40;;;;;;;;;;5113887;28;20031;-62
2021/07/21 08:14:32;;;;;;;32.88;15.85;;;;;;;;;;5089231;28;20040;-62
2021/07/21 08:16:58;;;;;;;29.80;17.40;;;;;;;;;;5106028;28;20024;-62
2021/07/21 08:19:24;;;;;;;29.25;15.88;;;;;;;;;;5107984;28;20028;-62
2021/07/21 08:21:51;;;;;;;30.45;16.17;;;;;;;;;;5108950;28;20108;-63
2021/07/21 08:24:17;;;;;;;31.75;17.70;;;;;;;;;;5108551;27;20372;-62
2021/07/21 08:26:44;;;;;;;26.77;16.05;;;;;;;;;;5107080;28;20055;-63
2021/07/21 08:29:10;;;;;;;27.65;16.08;;;;;;;;;;5106579;28;20470;-62
2021/07/21 08:31:36;;;;;;;28.60;16.30;;;;;;;;;;5110091;28;20027;-63
2021/07/21 08:34:05;;;;;;;27.50;14.77;;;;;;;;;;5107868;28;20012;-63
2021/07/21 08:36:33;;;;;;;32.30;17.45;;;;;;;;;;5092835;28;20034;-62
2021/07/21 08:38:59;;;;;;;30.42;17.63;;;;;;;;;;5090607;28;20024;-63
2021/07/21 08:41:28;;;;;;;30.85;16.88;;;;;;;;;;5106882;27;20019;-62
2021/07/21 08:43:55;;;;;;;25.50;14.75;;;;;;;;;;5104042;28;20503;-63
2021/07/21 08:46:21;;;;;;;26.80;15.23;;;;;;;;;;5110266;28;20495;-62
2021/07/21 08:48:51;;;;;;;29.83;14.70;;;;;;;;;;5107900;27;20023;-62
2021/07/21 08:51:17;;;;;;;26.02;15.48;;;;;;;;;;5109685;27;20094;-62
2021/07/21 08:53:43;;;;;;;25.20;16.15;;;;;;;;;;5110345;28;20024;-63
2021/07/21 08:56:10;;;;;;;28.83;15.15;;;;;;;;;;5105986;28;20581;-63
2021/07/21 08:58:36;;;;;;;27.38;15.43;;;;;;;;;;5110322;27;20849;-62
2021/07/21 09:01:03;;;;;;;28.77;15.48;;;;;;;;;;5091138;28;20055;-62
2021/07/21 09:03:29;;;;;;;31.50;17.52;;;;;;;;;;5090208;28;20130;-62
2021/07/21 09:05:55;;;;;;;25.08;16.13;;;;;;;;;;5088202;28;20050;-63
2021/07/21 09:08:21;;;;;;;30.67;17.25;;;;;;;;;;5104723;28;20185;-63
2021/07/21 09:10:48;;;;;;;31.35;16.50;;;;;;;;;;5099966;28;20069;-62
2021/07/21 09:13:14;;;;;;;31.33;17.55;;;;;;;;;;5094282;28;20039;-62
2021/07/21 09:15:43;;;;;;;29.92;16.98;;;;;;;;;;5097943;27;20118;-63
2021/07/21 09:18:09;;;;;;;28.23;15.82;;;;;;;;;;5106489;27;20024;-63
2021/07/21 09:20:36;;;;;;;33.83;17.48;;;;;;;;;;5103720;28;20036;-62
2021/07/21 09:23:03;;;;;;;28.02;15.93;;;;;;;;;;5101811;28;20043;-62
2021/07/21 09:25:30;;;;;;;32.63;18.70;;;;;;;;;;5095833;28;20076;-63
2021/07/21 09:27:57;;;;;;;29.48;17.25;;;;;;;;;;5102274;28;20028;-62
2021/07/21 09:30:26;;;;;;;33.35;18.83;;;;;;;;;;5099907;28;20032;-62
2021/07/21 09:32:53;;;;;;;33.35;18.70;;;;;;;;;;5110969;27;20040;-62
2021/07/21 09:35:20;;;;;;;34.80;20.23;;;;;;;;;;5083079;28;20456;-62
2021/07/21 09:37:47;;;;;;;33.53;20.85;;;;;;;;;;5102682;28;20043;-62
2021/07/21 09:40:14;;;;;;;36.08;20.52;;;;;;;;;;5101804;28;20034;-62
2021/07/21 09:42:40;;;;;;;34.53;20.63;;;;;;;;;;5102696;28;20032;-63
2021/07/21 09:45:13;;;;;;;37.47;20.67;;;;;;;;;;5099964;28;20082;-62
2021/07/21 09:47:47;;;;;;;41.97;22.65;;;;;;;;;;5103632;27;20176;-62
2021/07/21 09:50:23;;;;;;;36.88;19.95;;;;;;;;;;5095981;28;20471;-62
2021/07/21 09:52:50;;;;;;;34.60;19.83;;;;;;;;;;5111048;28;20024;-62
2021/07/21 09:55:17;;;;;;;41.22;21.02;;;;;;;;;;5106466;28;20028;-62
2021/07/21 09:57:55;;;;;;;40.65;20.75;;;;;;;;;;5086846;28;20069;-62
2021/07/21 10:00:22;;;;;;;36.25;19.48;;;;;;;;;;5102021;28;20047;-63
2021/07/21 10:02:49;;;;;;;38.67;21.95;;;;;;;;;;5106933;28;20042;-63
2021/07/21 10:05:15;;;;;;;41.53;23.48;;;;;;;;;;5107688;28;20020;-62
2021/07/21 10:07:51;;;;;;;40.20;22.83;;;;;;;;;;5117839;27;20027;-63
2021/07/21 10:10:18;;;;;;;36.58;20.48;;;;;;;;;;5092133;28;20089;-62
2021/07/21 10:12:57;;;;;;;34.13;19.52;;;;;;;;;;5106734;28;20024;-63
2021/07/21 10:15:24;;;;;;;44.25;22.63;;;;;;;;;;5105007;28;20069;-63
2021/07/21 10:18:07;;;;;;;38.75;22.95;;;;;;;;;;5108294;28;20036;-62
2021/07/21 10:20:34;;;;;;;44.45;22.90;;;;;;;;;;5108864;28;20040;-62
2021/07/21 10:23:00;;;;;;;39.05;23.08;;;;;;;;;;5108598;28;20118;-63
2021/07/21 10:25:26;;;;;;;34.63;20.90;;;;;;;;;;5107856;28;20239;-63
2021/07/21 10:27:54;;;;;;;38.10;19.75;;;;;;;;;;5109258;28;20019;-63
2021/07/21 10:30:20;;;;;;;40.35;21.50;;;;;;;;;;5095792;28;20023;-62
2021/07/21 10:32:47;;;;;;;34.13;20.38;;;;;;;;;;5110341;28;20499;-63
2021/07/21 10:35:13;;;;;;;34.30;18.85;;;;;;;;;;5088152;28;20035;-62
2021/07/21 10:37:39;;;;;;;41.42;19.85;;;;;;;;;;5107589;28;20036;-62
2021/07/21 10:40:06;;;;;;;35.15;20.67;;;;;;;;;;5110459;27;20023;-63
2021/07/21 10:42:32;;;;;;;41.10;19.95;;;;;;;;;;5118404;27;20023;-62
2021/07/21 10:45:13;;;;;;;35.45;21.50;;;;;;;;;;5107848;28;20080;-63
2021/07/21 10:47:45;;;;;;;39.63;21.23;;;;;;;;;;5090716;28;20022;-62
2021/07/21 10:50:25;;;;;;;34.72;19.38;;;;;;;;;;5108102;28;20038;-63
2021/07/21 10:53:11;;;;;;;29.67;18.48;;;;;;;;;;5111011;28;20035;-63
2021/07/21 10:55:44;;;;;;;36.92;18.70;;;;;;;;;;5085273;28;20032;-63
2021/07/21 11:00:56;;;;;;;29.05;18.15;;;;;;;;;;5108800;28;20080;-63
2021/07/21 11:03:28;;;;;;;32.58;17.75;;;;;;;;;;5111030;28;20015;-63
2021/07/21 11:05:54;;;;;;;;;;;;;;;;;;5102275;28;20028;-63
2021/07/21 11:08:21;;;;;;;33.60;17.20;;;;;;;;;;5110387;28;19911;-62
2021/07/21 11:10:48;;;;;;;30.27;18.02;;;;;;;;;;5108762;28;20035;-63
2021/07/21 11:13:34;;;;;;;31.27;16.45;;;;;;;;;;5109097;28;20023;-63
2021/07/21 11:16:01;;;;;;;32.28;18.05;;;;;;;;;;5104751;28;20044;-62
2021/07/21 11:18:27;;;;;;;34.00;18.52;;;;;;;;;;5107727;28;20016;-63
2021/07/21 11:21:00;;;;;;;33.65;19.42;;;;;;;;;;5108084;28;20045;-63
2021/07/21 11:23:45;;;;;;;36.00;19.10;;;;;;;;;;5105882;28;20486;-63
2021/07/21 11:26:29;;;;;;;31.05;19.33;;;;;;;;;;5107560;28;20498;-63
2021/07/21 11:28:55;;;;;;;29.80;18.25;;;;;;;;;;5110179;28;21569;-63
2021/07/21 11:31:40;;;;;;;40.15;21.45;;;;;;;;;;5110117;28;20024;-63
2021/07/21 11:34:12;;;;;;;34.83;19.45;;;;;;;;;;5105204;28;20019;-63
2021/07/21 11:36:46;;;;;;;36.72;20.58;;;;;;;;;;5104531;28;20035;-63
2021/07/21 11:39:31;;;;;;;34.80;20.17;;;;;;;;;;5110517;28;20494;-63
2021/07/21 11:41:58;;;;;;;27.85;17.67;;;;;;;;;;5103073;28;20019;-62
2021/07/21 11:44:31;;;;;;;32.22;18.33;;;;;;;;;;5105628;28;20059;-63
2021/07/21 11:46:57;;;;;;;33.35;18.88;;;;;;;;;;5086865;28;20023;-63
2021/07/21 11:49:28;;;;;;;35.92;19.50;;;;;;;;;;5114996;27;20023;-63
2021/07/21 11:51:58;;;;;;;33.22;19.08;;;;;;;;;;5109251;28;20026;-63
2021/07/21 11:54:27;;;;;;;33.30;19.05;;;;;;;;;;5100793;28;20093;-63
2021/07/21 11:56:54;;;;;;;31.52;17.20;;;;;;;;;;5109643;28;20102;-63
2021/07/21 11:59:30;;;;;;;36.55;21.13;;;;;;;;;;5103771;28;20031;-63
2021/07/21 12:02:05;;;;;;;38.22;22.65;;;;;;;;;;5107198;28;20027;-63
2021/07/21 12:04:31;;;;;;;38.53;21.65;;;;;;;;;;5106406;28;20027;-63
2021/07/21 12:06:57;;;;;;;41.28;23.40;;;;;;;;;;5115666;27;20024;-63
2021/07/21 12:09:30;;;;;;;36.33;22.23;;;;;;;;;;5102034;28;20092;-63
2021/07/21 12:11:57;;;;;;;39.92;20.92;;;;;;;;;;5094733;28;20023;-64
2021/07/21 12:14:24;;;;;;;38.45;21.58;;;;;;;;;;5102021;28;20399;-63
2021/07/21 12:16:50;;;;;;;39.78;21.13;;;;;;;;;;5098419;28;20031;-63
2021/07/21 12:19:16;;;;;;;39.20;21.92;;;;;;;;;;5106280;28;20031;-63
2021/07/21 12:21:43;;;;;;;41.38;23.95;;;;;;;;;;5092196;28;20024;-63
2021/07/21 12:24:12;;;;;;;43.15;23.30;;;;;;;;;;5114340;27;20023;-63
2021/07/21 12:26:49;;;;;;;45.00;24.52;;;;;;;;;;5093944;28;20085;-63
2021/07/21 12:29:25;;;;;;;47.25;24.13;;;;;;;;;;5108325;28;20031;-63
2021/07/21 12:32:01;;;;;;;44.78;25.20;;;;;;;;;;5113186;28;20024;-63
2021/07/21 12:34:27;;;;;;;41.67;23.35;;;;;;;;;;5107172;28;20039;-63
2021/07/21 12:36:53;;;;;;;42.47;23.05;;;;;;;;;;5111953;28;20034;-63
2021/07/21 12:39:30;;;;;;;38.50;22.70;;;;;;;;;;5097853;27;20035;-63
2021/07/21 12:42:06;;;;;;;42.25;22.50;;;;;;;;;;5097846;27;20015;-63
2021/07/21 12:44:36;;;;;;;41.50;24.73;;;;;;;;;;5107638;27;20023;-63
2021/07/21 12:47:18;;;;;;;41.30;24.20;;;;;;;;;;5096020;28;20062;-63
2021/07/21 12:49:45;;;;;;;44.63;25.98;;;;;;;;;;5107164;28;20055;-63
2021/07/21 12:52:13;;;;;;;44.92;26.70;;;;;;;;;;5108136;28;20035;-63
2021/07/21 12:54:39;;;;;;;48.70;26.23;;;;;;;;;;5107351;28;20028;-63
2021/07/21 12:57:05;;;;;;;41.70;23.73;;;;;;;;;;5112743;27;20024;-63
2021/07/21 12:59:35;;;;;;;40.65;21.65;;;;;;;;;;5103375;28;20511;-63
2021/07/21 13:02:09;;;;;;;47.03;25.58;;;;;;;;;;5101800;28;20514;-63
2021/07/21 13:04:35;;;;;;;44.13;24.05;;;;;;;;;;5101090;28;20020;-64
2021/07/21 13:07:07;;;;;;;41.45;24.42;;;;;;;;;;5099152;28;20028;-63
2021/07/21 13:09:37;;;;;;;39.80;23.40;;;;;;;;;;5106822;28;20028;-63
2021/07/21 13:12:14;;;;;;;41.85;25.25;;;;;;;;;;5108528;28;20106;-64
2021/07/21 13:14:40;;;;;;;42.67;23.73;;;;;;;;;;5105190;27;20028;-64
2021/07/21 13:17:12;;;;;;;43.97;23.83;;;;;;;;;;5106280;28;20499;-64
2021/07/21 13:19:39;;;;;;;45.05;23.15;;;;;;;;;;5106439;28;20062;-63
2021/07/21 13:22:19;;;;;;;43.55;24.70;;;;;;;;;;5104794;28;20512;-63
2021/07/21 13:24:45;;;;;;;38.05;21.65;;;;;;;;;;5097554;28;20048;-63
2021/07/21 13:27:13;;;;;;;37.83;21.10;;;;;;;;;;5109182;28;20221;-63
2021/07/21 13:29:41;;;;;;;37.08;19.92;;;;;;;;;;5109215;28;20028;-63
2021/07/21 13:32:07;;;;;;;33.45;19.27;;;;;;;;;;5111579;27;20064;-64
2021/07/21 13:34:36;;;;;;;36.53;21.13;;;;;;;;;;5107528;28;20028;-64
2021/07/21 13:37:03;;;;;;;30.08;18.33;;;;;;;;;;5111301;28;20067;-63
2021/07/21 13:39:58;;;;;;;30.13;17.65;;;;;;;;;;5109078;28;20036;-63
2021/07/21 13:42:24;;;;;;;29.25;18.20;;;;;;;;;;5097973;28;20028;-63
2021/07/21 13:45:07;;;;;;;34.67;18.35;;;;;;;;;;5105697;28;20403;-64
2021/07/21 13:47:33;;;;;;;32.75;16.92;;;;;;;;;;5105112;27;20073;-63
2021/07/21 13:50:11;;;;;;;30.90;18.00;;;;;;;;;;5106405;28;20498;-63
2021/07/21 13:52:37;;;;;;;25.88;16.80;;;;;;;;;;5102796;28;20582;-63
2021/07/21 13:55:04;;;;;;;29.63;18.77;;;;;;;;;;5103272;28;20499;-63
2021/07/21 13:57:30;;;;;;;30.67;16.25;;;;;;;;;;5111095;28;20055;-63
2021/07/21 13:59:56;;;;;;;28.45;17.20;;;;;;;;;;5104464;28;20126;-63
2021/07/21 14:02:22;;;;;;;30.70;16.50;;;;;;;;;;5101070;28;20044;-63
2021/07/21 14:04:49;;;;;;;25.98;13.88;;;;;;;;;;5096370;27;20051;-63
2021/07/21 14:07:15;;;;;;;23.42;13.43;;;;;;;;;;5100810;28;20036;-63
2021/07/21 14:09:42;;;;;;;26.45;16.05;;;;;;;;;;5099552;28;20032;-64
2021/07/21 14:12:09;;;;;;;29.80;17.10;;;;;;;;;;5105425;28;20031;-63
2021/07/21 14:14:35;;;;;;;29.75;14.82;;;;;;;;;;5088458;28;20110;-63
2021/07/21 14:17:02;;;;;;;30.45;15.20;;;;;;;;;;5105565;28;20031;-63
2021/07/21 14:19:30;;;;;;;24.65;14.73;;;;;;;;;;5090913;28;20454;-63
2021/07/21 14:21:56;;;;;;;24.90;15.27;;;;;;;;;;5109963;28;20072;-63
2021/07/21 14:24:22;;;;;;;26.50;14.93;;;;;;;;;;5104362;28;20024;-63
2021/07/21 14:26:49;;;;;;;29.63;16.73;;;;;;;;;;5106673;28;20035;-64
2021/07/21 14:29:15;;;;;;;26.67;16.33;;;;;;;;;;5110985;28;20066;-64
2021/07/21 14:31:41;;;;;;;24.75;14.98;;;;;;;;;;5106120;28;20031;-63